createdAt,value
2019-05-05T00:00:47.463Z,16.55
2019-05-05T00:03:34.265Z,16.23
2019-05-05T00:06:05.277Z,18.37
2019-05-05T00:08:35.129Z,22.50
2019-05-05T00:11:22.003Z,21.55
2019-05-05T00:14:00.950Z,17.07
2019-05-05T00:16:49.132Z,19.05
2019-05-05T00:19:29.814Z,17.17
2019-05-05T00:21:47.875Z,21.00
2019-05-05T00:24:16.443Z,20.62
2019-05-05T00:26:46.084Z,19.12
2019-05-05T00:29:14.947Z,16.82
2019-05-05T00:31:45.283Z,23.95
2019-05-05T00:34:15.333Z,17.87
2019-05-05T00:36:44.619Z,17.87
2019-05-05T00:39:14.942Z,20.37
2019-05-05T00:41:44.914Z,21.85
2019-05-05T00:44:15.353Z,20.08
2019-05-05T00:46:48.258Z,18.82
2019-05-05T00:49:16.706Z,16.70
2019-05-05T00:51:45.156Z,18.62
2019-05-05T00:54:14.865Z,18.48
2019-05-05T00:56:45.024Z,18.25
2019-05-05T00:59:15.328Z,20.45
2019-05-05T01:02:00.595Z,21.90
2019-05-05T01:04:35.203Z,22.02
2019-05-05T01:07:04.947Z,21.20
2019-05-05T01:09:34.392Z,23.45
2019-05-05T01:12:04.394Z,19.02
2019-05-05T01:14:34.252Z,19.40
2019-05-05T01:17:05.152Z,17.77
2019-05-05T01:19:34.978Z,18.17
2019-05-05T01:22:04.948Z,21.95
2019-05-05T01:24:34.226Z,22.05
2019-05-05T01:27:04.266Z,21.62
2019-05-05T01:29:34.633Z,24.90
2019-05-05T01:32:05.099Z,16.93
2019-05-05T01:34:35.396Z,21.48
2019-05-05T01:37:11.359Z,16.00
2019-05-05T01:39:54.218Z,18.87
2019-05-05T01:42:24.793Z,17.80
2019-05-05T01:44:55.138Z,23.02
2019-05-05T01:47:25.275Z,17.75
2019-05-05T01:49:54.438Z,25.30
2019-05-05T01:52:25.271Z,15.15
2019-05-05T01:54:54.766Z,19.12
2019-05-05T01:57:25.172Z,19.85
2019-05-05T01:59:55.202Z,20.12
2019-05-05T02:02:25.154Z,17.07
2019-05-05T02:04:55.296Z,20.95
2019-05-05T02:07:25.012Z,16.93
2019-05-05T02:09:55.437Z,17.42
2019-05-05T02:12:24.647Z,19.23
2019-05-05T02:14:55.170Z,20.60
2019-05-05T02:17:24.706Z,16.10
2019-05-05T02:19:54.968Z,17.07
2019-05-05T02:22:25.241Z,17.52
2019-05-05T02:24:55.070Z,17.70
2019-05-05T02:27:25.161Z,19.42
2019-05-05T02:29:58.299Z,23.38
2019-05-05T02:32:37.288Z,16.85
2019-05-05T02:35:09.226Z,16.90
2019-05-05T02:37:37.718Z,18.70
2019-05-05T02:40:15.658Z,17.77
2019-05-05T02:42:45.596Z,20.95
2019-05-05T02:45:26.059Z,18.77
2019-05-05T02:47:57.365Z,19.20
2019-05-05T02:50:46.745Z,16.00
2019-05-05T02:53:03.879Z,18.50
2019-05-05T02:55:35.320Z,24.95
2019-05-05T02:58:04.198Z,17.48
2019-05-05T03:00:34.911Z,21.52
2019-05-05T03:03:05.051Z,16.42
2019-05-05T03:05:34.151Z,24.65
2019-05-05T03:08:04.840Z,24.52
2019-05-05T03:10:34.035Z,18.48
2019-05-05T03:13:04.888Z,20.12
2019-05-05T03:15:54.959Z,16.60
2019-05-05T03:18:24.664Z,15.65
2019-05-05T03:21:03.776Z,24.57
2019-05-05T03:23:24.731Z,17.60
2019-05-05T03:25:54.562Z,16.48
2019-05-05T03:28:25.550Z,15.00
2019-05-05T03:30:55.801Z,17.75
2019-05-05T03:33:25.131Z,14.35
2019-05-05T03:35:54.224Z,22.93
2019-05-05T03:38:24.746Z,18.67
2019-05-05T03:40:54.900Z,19.85
2019-05-05T03:43:25.160Z,16.77
2019-05-05T03:45:58.370Z,16.65
2019-05-05T03:48:26.876Z,20.52
2019-05-05T03:50:55.431Z,14.60
2019-05-05T03:53:24.706Z,15.08
2019-05-05T03:55:54.599Z,15.40
2019-05-05T03:58:24.086Z,15.35
2019-05-05T04:00:55.786Z,16.80
2019-05-05T04:03:24.225Z,12.23
2019-05-05T04:06:00.069Z,14.38
2019-05-05T04:08:28.950Z,15.65
2019-05-05T04:10:57.538Z,13.70
2019-05-05T04:13:27.123Z,13.58
2019-05-05T04:16:09.646Z,17.48
2019-05-05T04:18:43.563Z,14.73
2019-05-05T04:21:13.925Z,15.43
2019-05-05T04:23:44.061Z,15.00
2019-05-05T04:26:14.243Z,15.38
2019-05-05T04:28:43.658Z,18.07
2019-05-05T04:31:13.580Z,16.82
2019-05-05T04:33:44.344Z,15.45
2019-05-05T04:36:14.321Z,15.35
2019-05-05T04:38:43.978Z,15.90
2019-05-05T04:41:14.086Z,15.05
2019-05-05T04:43:44.192Z,15.20
2019-05-05T04:46:13.991Z,14.23
2019-05-05T04:48:50.486Z,12.23
2019-05-05T04:51:20.547Z,14.68
2019-05-05T04:54:07.002Z,11.68
2019-05-05T04:56:35.688Z,16.62
2019-05-05T04:59:04.453Z,15.18
2019-05-05T05:01:34.822Z,11.90
2019-05-05T05:04:07.843Z,11.95
2019-05-05T05:06:37.899Z,11.63
2019-05-05T05:09:07.159Z,13.25
2019-05-05T05:11:35.600Z,13.75
2019-05-05T05:14:04.098Z,12.33
2019-05-05T05:16:32.530Z,12.00
2019-05-05T05:19:00.947Z,8.78
2019-05-05T05:21:29.386Z,12.20
2019-05-05T05:23:57.805Z,10.32
2019-05-05T05:26:26.615Z,7.72
2019-05-05T05:28:55.030Z,11.00
2019-05-05T05:31:24.497Z,8.30
2019-05-05T05:33:54.810Z,8.70
2019-05-05T05:36:24.741Z,9.48
2019-05-05T05:38:55.020Z,8.25
2019-05-05T05:41:43.562Z,9.03
2019-05-05T05:44:17.859Z,7.83
2019-05-05T05:47:00.163Z,7.08
2019-05-05T05:49:39.127Z,10.10
2019-05-05T05:52:15.820Z,8.43
2019-05-05T05:54:37.778Z,7.12
2019-05-05T05:57:06.307Z,14.93
2019-05-05T05:59:34.769Z,6.72
2019-05-05T06:02:11.507Z,7.53
2019-05-05T06:04:34.056Z,6.92
2019-05-05T06:07:04.081Z,9.13
2019-05-05T06:09:34.452Z,6.42
2019-05-05T06:12:03.588Z,5.53
2019-05-05T06:14:34.149Z,7.80
2019-05-05T06:17:04.227Z,6.47
2019-05-05T06:19:33.771Z,7.58
2019-05-05T06:22:03.566Z,7.53
2019-05-05T06:24:34.409Z,10.20
2019-05-05T06:27:03.732Z,7.83
2019-05-05T06:29:34.332Z,7.60
2019-05-05T06:32:04.024Z,9.55
2019-05-05T06:34:33.819Z,9.60
2019-05-05T06:37:04.250Z,4.85
2019-05-05T06:39:33.484Z,8.95
2019-05-05T06:42:06.680Z,8.85
2019-05-05T06:44:39.691Z,6.53
2019-05-05T06:47:09.849Z,7.08
2019-05-05T06:49:38.275Z,5.75
2019-05-05T06:52:06.730Z,6.75
2019-05-05T06:54:35.230Z,7.42
2019-05-05T06:57:04.492Z,8.65
2019-05-05T06:59:34.900Z,6.45
2019-05-05T07:02:04.246Z,6.65
2019-05-05T07:04:33.990Z,6.17
2019-05-05T07:07:04.877Z,8.08
2019-05-05T07:09:33.647Z,11.57
2019-05-05T07:12:04.302Z,7.42
2019-05-05T07:14:34.000Z,8.25
2019-05-05T07:17:04.911Z,10.20
2019-05-05T07:19:34.489Z,6.50
2019-05-05T07:22:04.096Z,9.05
2019-05-05T07:24:34.517Z,11.12
2019-05-05T07:27:04.730Z,6.05
2019-05-05T07:29:34.252Z,10.40
2019-05-05T07:32:03.959Z,9.33
2019-05-05T07:34:37.138Z,7.12
2019-05-05T07:37:05.556Z,6.22
2019-05-05T07:39:34.152Z,8.75
2019-05-05T07:42:04.436Z,7.67
2019-05-05T07:44:33.902Z,8.98
2019-05-05T07:47:03.635Z,12.03
2019-05-05T07:49:33.584Z,7.50
2019-05-05T07:52:04.045Z,6.87
2019-05-05T07:54:34.189Z,5.85
2019-05-05T07:57:04.210Z,6.42
2019-05-05T07:59:34.048Z,5.28
2019-05-05T08:02:04.029Z,5.92
2019-05-05T08:04:34.570Z,6.42
2019-05-05T08:07:04.060Z,5.90
2019-05-05T08:09:33.868Z,6.37
2019-05-05T08:12:04.332Z,8.70
2019-05-05T08:14:33.766Z,6.12
2019-05-05T08:17:04.245Z,7.50
2019-05-05T08:19:40.175Z,8.63
2019-05-05T08:22:08.677Z,5.17
2019-05-05T08:24:56.612Z,9.03
2019-05-05T08:27:29.270Z,7.03
2019-05-05T08:30:02.058Z,5.67
2019-05-05T08:32:35.029Z,7.08
2019-05-05T08:35:01.410Z,8.00
2019-05-05T08:37:29.886Z,4.20
2019-05-05T08:39:58.319Z,5.40
2019-05-05T08:42:26.739Z,12.63
2019-05-05T08:44:55.182Z,5.03
2019-05-05T08:47:24.570Z,5.35
2019-05-05T08:49:53.887Z,4.37
2019-05-05T08:52:23.820Z,3.80
2019-05-05T08:54:54.187Z,5.97
2019-05-05T08:57:23.609Z,3.90
2019-05-05T08:59:54.318Z,7.97
2019-05-05T09:02:23.939Z,6.10
2019-05-05T09:04:53.777Z,5.42
2019-05-05T09:07:24.337Z,6.45
2019-05-05T09:09:54.483Z,5.75
2019-05-05T09:12:23.606Z,5.50
2019-05-05T09:14:53.913Z,7.35
2019-05-05T09:17:24.335Z,7.42
2019-05-05T09:19:53.738Z,4.95
2019-05-05T09:22:24.400Z,5.55
2019-05-05T09:24:54.067Z,5.60
2019-05-05T09:27:44.156Z,3.87
2019-05-05T09:30:14.766Z,4.00
2019-05-05T09:32:43.919Z,4.83
2019-05-05T09:35:13.887Z,5.75
2019-05-05T09:37:44.325Z,3.50
2019-05-05T09:40:13.866Z,5.67
2019-05-05T09:42:44.291Z,4.28
2019-05-05T09:45:14.001Z,4.92
2019-05-05T09:47:44.852Z,3.67
2019-05-05T09:50:14.383Z,4.20
2019-05-05T09:52:44.335Z,4.90
2019-05-05T09:55:13.839Z,3.50
2019-05-05T09:57:43.771Z,6.80
2019-05-05T10:00:14.198Z,4.03
2019-05-05T10:02:44.131Z,5.47
2019-05-05T10:05:14.470Z,5.95
2019-05-05T10:07:44.055Z,4.97
2019-05-05T10:10:13.794Z,3.25
2019-05-05T10:12:44.368Z,4.20
2019-05-05T10:15:13.897Z,5.17
2019-05-05T10:17:43.571Z,5.58
2019-05-05T10:20:14.394Z,6.65
2019-05-05T10:22:43.810Z,2.60
2019-05-05T10:25:34.306Z,3.75
2019-05-05T10:28:04.273Z,3.77
2019-05-05T10:30:34.458Z,3.10
2019-05-05T10:33:03.775Z,4.87
2019-05-05T10:35:34.495Z,3.80
2019-05-05T10:38:03.052Z,4.25
2019-05-05T10:40:34.829Z,3.77
2019-05-05T10:43:04.458Z,3.83
2019-05-05T10:45:33.660Z,3.40
2019-05-05T10:48:04.071Z,3.45
2019-05-05T10:50:34.150Z,4.22
2019-05-05T10:53:04.598Z,4.58
2019-05-05T10:55:34.583Z,3.85
2019-05-05T10:58:03.798Z,4.20
2019-05-05T11:00:44.402Z,3.90
2019-05-05T11:03:14.871Z,8.88
2019-05-05T11:05:44.791Z,5.95
2019-05-05T11:08:13.769Z,3.87
2019-05-05T11:10:44.565Z,4.30
2019-05-05T11:13:12.762Z,3.75
2019-05-05T11:15:41.280Z,4.45
2019-05-05T11:18:10.250Z,3.58
2019-05-05T11:20:38.731Z,6.65
2019-05-05T11:23:07.225Z,3.35
2019-05-05T11:25:35.764Z,4.37
2019-05-05T11:28:05.971Z,3.37
2019-05-05T11:30:39.608Z,3.77
2019-05-05T11:33:23.750Z,3.70
2019-05-05T11:35:54.122Z,4.00
2019-05-05T11:38:24.557Z,3.72
2019-05-05T11:40:54.655Z,4.55
2019-05-05T11:43:24.709Z,4.45
2019-05-05T11:45:54.448Z,3.83
2019-05-05T11:48:24.012Z,3.30
2019-05-05T11:50:54.024Z,4.03
2019-05-05T11:53:24.906Z,6.50
2019-05-05T11:55:54.973Z,3.80
2019-05-05T11:58:24.830Z,3.10
2019-05-05T12:00:54.453Z,3.35
2019-05-05T12:03:23.179Z,3.33
2019-05-05T12:05:51.594Z,5.92
2019-05-05T12:08:20.052Z,5.70
2019-05-05T12:10:59.086Z,3.55
2019-05-05T12:13:27.597Z,2.90
2019-05-05T12:16:00.562Z,3.37
2019-05-05T12:18:29.251Z,3.10
2019-05-05T12:20:57.734Z,4.33
2019-05-05T12:23:26.183Z,4.00
2019-05-05T12:26:08.747Z,5.70
2019-05-05T12:28:44.815Z,5.03
2019-05-05T12:31:26.875Z,4.95
2019-05-05T12:33:55.315Z,3.12
2019-05-05T12:36:24.208Z,5.05
2019-05-05T12:38:54.562Z,2.37
2019-05-05T12:41:23.883Z,4.72
2019-05-05T12:43:54.878Z,9.68
2019-05-05T12:46:33.809Z,5.03
2019-05-05T12:49:04.760Z,5.25
2019-05-05T12:51:34.289Z,5.10
2019-05-05T12:54:04.489Z,2.92
2019-05-05T12:56:34.044Z,5.03
2019-05-05T12:59:04.351Z,4.42
2019-05-05T13:01:44.130Z,4.20
2019-05-05T13:04:14.132Z,7.22
2019-05-05T13:06:44.858Z,2.80
2019-05-05T13:09:13.608Z,4.20
2019-05-05T13:11:43.646Z,5.10
2019-05-05T13:14:14.253Z,3.90
2019-05-05T13:16:52.821Z,5.10
2019-05-05T13:19:14.831Z,3.70
2019-05-05T13:22:03.691Z,3.95
2019-05-05T13:24:48.862Z,4.20
2019-05-05T13:27:19.709Z,3.33
2019-05-05T13:29:48.456Z,2.75
2019-05-05T13:32:16.887Z,4.15
2019-05-05T13:34:45.347Z,5.35
2019-05-05T13:37:14.176Z,4.25
2019-05-05T13:39:44.576Z,3.37
2019-05-05T13:42:13.841Z,2.72
2019-05-05T13:44:49.977Z,5.50
2019-05-05T13:47:18.510Z,5.90
2019-05-05T13:49:47.019Z,2.67
2019-05-05T13:52:15.459Z,2.10
2019-05-05T13:54:43.969Z,2.10
2019-05-05T13:57:14.248Z,1.80
2019-05-05T13:59:44.489Z,4.15
2019-05-05T14:02:13.790Z,6.35
2019-05-05T14:04:43.815Z,3.25
2019-05-05T14:07:12.576Z,2.15
2019-05-05T14:09:41.007Z,1.60
2019-05-05T14:12:09.528Z,2.77
2019-05-05T14:14:37.951Z,3.15
2019-05-05T14:17:06.425Z,1.85
2019-05-05T14:19:34.841Z,1.62
2019-05-05T14:22:04.507Z,9.97
2019-05-05T14:24:40.750Z,2.12
2019-05-05T14:27:09.187Z,2.58
2019-05-05T14:29:39.251Z,3.90
2019-05-05T14:32:09.034Z,2.20
2019-05-05T14:34:39.133Z,2.35
2019-05-05T14:37:25.305Z,2.47
2019-05-05T14:39:54.596Z,5.42
2019-05-05T14:42:23.562Z,10.50
2019-05-05T14:44:54.387Z,2.75
2019-05-05T14:47:24.266Z,2.45
2019-05-05T14:49:54.042Z,2.95
2019-05-05T14:52:24.623Z,2.73
2019-05-05T14:54:54.403Z,5.95
2019-05-05T14:57:24.917Z,8.20
2019-05-05T14:59:54.027Z,5.80
2019-05-05T15:02:24.331Z,13.68
2019-05-05T15:04:53.998Z,7.85
2019-05-05T15:07:36.775Z,5.75
2019-05-05T15:10:20.339Z,5.20
2019-05-05T15:12:50.440Z,2.60
2019-05-05T15:15:19.032Z,6.53
2019-05-05T15:17:47.491Z,4.90
2019-05-05T15:20:16.119Z,6.22
2019-05-05T15:22:44.659Z,2.80
2019-05-05T15:25:13.364Z,2.12
2019-05-05T15:27:41.833Z,2.67
2019-05-05T15:30:10.587Z,2.58
2019-05-05T15:32:39.101Z,3.30
2019-05-05T15:35:07.881Z,2.52
2019-05-05T15:37:36.478Z,2.67
2019-05-05T15:40:05.658Z,4.50
2019-05-05T15:42:34.209Z,2.17
2019-05-05T15:45:04.036Z,4.97
2019-05-05T15:47:34.347Z,2.15
2019-05-05T15:50:05.233Z,1.75
2019-05-05T15:52:35.203Z,3.55
2019-05-05T15:55:06.148Z,2.58
2019-05-05T15:57:34.583Z,3.10
2019-05-05T16:00:04.962Z,3.08
2019-05-05T16:02:35.907Z,2.58
2019-05-05T16:05:07.057Z,3.35
2019-05-05T16:07:35.495Z,3.08
2019-05-05T16:10:05.463Z,2.15
2019-05-05T16:12:39.199Z,6.60
2019-05-05T16:15:13.911Z,3.10
2019-05-05T16:17:53.399Z,3.35
2019-05-05T16:20:35.963Z,5.67
2019-05-05T16:23:22.811Z,2.70
2019-05-05T16:25:51.286Z,2.40
2019-05-05T16:28:19.696Z,3.25
2019-05-05T16:30:48.240Z,2.15
2019-05-05T16:33:16.678Z,2.55
2019-05-05T16:35:45.154Z,4.08
2019-05-05T16:38:14.925Z,2.37
2019-05-05T16:40:44.507Z,2.15
2019-05-05T16:43:14.044Z,3.37
2019-05-05T16:45:44.453Z,4.28
2019-05-05T16:48:13.288Z,2.90
2019-05-05T16:50:44.146Z,2.67
2019-05-05T16:53:14.085Z,4.53
2019-05-05T16:55:44.868Z,3.75
2019-05-05T16:58:14.011Z,3.33
2019-05-05T17:00:44.148Z,18.00
2019-05-05T17:03:13.458Z,11.45
2019-05-05T17:05:44.052Z,3.12
2019-05-05T17:08:13.933Z,3.22
2019-05-05T17:10:43.561Z,2.52
2019-05-05T17:13:30.296Z,4.03
2019-05-05T17:16:07.401Z,2.62
2019-05-05T17:18:37.447Z,2.83
2019-05-05T17:21:14.267Z,2.27
2019-05-05T17:23:43.475Z,2.72
2019-05-05T17:26:14.134Z,1.67
2019-05-05T17:28:44.236Z,4.30
2019-05-05T17:31:12.887Z,2.22
2019-05-05T17:33:41.571Z,3.50
2019-05-05T17:36:10.007Z,2.70
2019-05-05T17:38:38.543Z,2.85
2019-05-05T17:41:14.650Z,2.20
2019-05-05T17:43:49.227Z,7.22
2019-05-05T17:46:37.679Z,4.95
2019-05-05T17:49:22.360Z,1.52
2019-05-05T17:51:54.610Z,2.00
2019-05-05T17:54:34.109Z,1.32
2019-05-05T17:57:03.504Z,1.80
2019-05-05T17:59:33.709Z,4.25
2019-05-05T18:02:04.509Z,1.62
2019-05-05T18:04:33.775Z,7.12
2019-05-05T18:07:09.717Z,3.17
2019-05-05T18:09:56.671Z,3.22
2019-05-05T18:12:45.165Z,3.02
2019-05-05T18:15:34.005Z,2.33
2019-05-05T18:18:04.255Z,2.25
2019-05-05T18:20:34.106Z,3.00
2019-05-05T18:23:02.848Z,5.03
2019-05-05T18:25:31.310Z,2.77
2019-05-05T18:28:12.798Z,2.92
2019-05-05T18:30:30.114Z,5.85
2019-05-05T18:32:58.644Z,1.65
2019-05-05T18:35:27.203Z,2.62
2019-05-05T18:37:55.627Z,2.95
2019-05-05T18:40:24.177Z,3.58
2019-05-05T18:42:54.345Z,2.10
2019-05-05T18:45:23.775Z,1.45
2019-05-05T18:47:53.820Z,19.77
2019-05-05T18:50:24.344Z,24.10
2019-05-05T18:52:53.851Z,9.98
2019-05-05T18:55:22.487Z,4.30
2019-05-05T18:57:51.072Z,2.70
2019-05-05T19:00:24.589Z,5.40
2019-05-05T19:03:00.846Z,3.08
2019-05-05T19:05:40.567Z,5.55
2019-05-05T19:08:14.296Z,3.95
2019-05-05T19:10:43.384Z,8.90
2019-05-05T19:13:13.631Z,28.77
2019-05-05T19:15:42.357Z,25.55
2019-05-05T19:18:10.785Z,11.68
2019-05-05T19:20:54.196Z,3.95
2019-05-05T19:23:22.733Z,3.30
2019-05-05T19:25:51.191Z,2.85
2019-05-05T19:28:19.607Z,2.42
2019-05-05T19:30:48.136Z,2.40
2019-05-05T19:33:16.631Z,4.42
2019-05-05T19:35:47.274Z,6.45
2019-05-05T19:38:15.799Z,3.22
2019-05-05T19:40:44.508Z,1.92
2019-05-05T19:43:13.977Z,2.62
2019-05-05T19:45:44.643Z,1.85
2019-05-05T19:48:14.782Z,4.80
2019-05-05T19:50:44.610Z,3.70
2019-05-05T19:53:24.304Z,2.40
2019-05-05T19:55:54.596Z,2.02
2019-05-05T19:58:23.608Z,2.22
2019-05-05T20:00:54.631Z,5.72
2019-05-05T20:03:24.161Z,3.45
2019-05-05T20:05:54.084Z,8.20
2019-05-05T20:08:24.070Z,6.20
2019-05-05T20:10:54.233Z,2.85
2019-05-05T20:13:23.144Z,2.72
2019-05-05T20:16:09.568Z,3.55
2019-05-05T20:18:38.030Z,3.35
2019-05-05T20:21:07.317Z,2.40
2019-05-05T20:23:36.091Z,2.27
2019-05-05T20:26:04.595Z,4.55
2019-05-05T20:28:33.906Z,2.75
2019-05-05T20:31:03.735Z,3.37
2019-05-05T20:33:34.068Z,2.10
2019-05-05T20:36:06.777Z,1.65
2019-05-05T20:38:45.393Z,1.75
2019-05-05T20:41:17.888Z,3.47
2019-05-05T20:43:46.570Z,2.02
2019-05-05T20:46:15.361Z,3.35
2019-05-05T20:48:44.863Z,6.95
2019-05-05T20:51:13.919Z,3.47
2019-05-05T20:53:44.770Z,4.30
2019-05-05T20:56:14.943Z,4.25
2019-05-05T20:58:43.963Z,4.75
2019-05-05T21:01:14.035Z,6.92
2019-05-05T21:03:42.674Z,5.10
2019-05-05T21:06:11.184Z,4.25
2019-05-05T21:08:39.621Z,3.20
2019-05-05T21:11:08.026Z,4.35
2019-05-05T21:13:36.477Z,4.60
2019-05-05T21:16:04.899Z,8.23
2019-05-05T21:18:34.669Z,7.78
2019-05-05T21:21:05.055Z,8.63
2019-05-05T21:23:35.155Z,9.10
2019-05-05T21:26:05.222Z,6.10
2019-05-05T21:28:33.747Z,5.80
2019-05-05T21:31:02.173Z,10.43
2019-05-05T21:33:30.662Z,5.58
2019-05-05T21:35:59.112Z,5.37
2019-05-05T21:38:27.539Z,3.95
2019-05-05T21:40:55.979Z,3.65
2019-05-05T21:43:24.412Z,4.05
2019-05-05T21:45:53.756Z,3.37
2019-05-05T21:48:24.238Z,4.33
2019-05-05T21:51:00.059Z,6.60
2019-05-05T21:53:30.134Z,6.53
2019-05-05T21:56:16.807Z,7.37
2019-05-05T21:58:46.803Z,4.78
2019-05-05T22:01:17.153Z,4.80
2019-05-05T22:03:45.643Z,7.22
2019-05-05T22:06:14.653Z,6.08
2019-05-05T22:08:43.269Z,9.75
2019-05-05T22:11:11.704Z,4.33
2019-05-05T22:13:40.210Z,7.97
2019-05-05T22:16:08.735Z,4.83
2019-05-05T22:18:37.160Z,5.05
2019-05-05T22:21:16.246Z,7.70
2019-05-05T22:23:46.315Z,5.90
2019-05-05T22:26:15.188Z,9.90
2019-05-05T22:28:44.639Z,5.25
2019-05-05T22:31:14.170Z,5.00
2019-05-05T22:33:44.668Z,4.40
2019-05-05T22:36:14.088Z,4.33
2019-05-05T22:38:44.478Z,3.50
2019-05-05T22:41:13.294Z,3.75
2019-05-05T22:43:44.313Z,3.22
2019-05-05T22:46:14.156Z,5.58
2019-05-05T22:48:43.989Z,3.80
2019-05-05T22:51:14.377Z,2.98
2019-05-05T22:53:44.124Z,2.42
2019-05-05T22:56:14.665Z,4.15
2019-05-05T22:58:43.892Z,4.60
2019-05-05T23:01:13.643Z,2.83
2019-05-05T23:03:46.606Z,2.85
2019-05-05T23:06:19.688Z,2.67
2019-05-05T23:08:48.117Z,4.55
2019-05-05T23:11:16.565Z,3.25
2019-05-05T23:13:44.987Z,4.00
2019-05-05T23:16:17.994Z,4.72
2019-05-05T23:18:46.453Z,3.30
2019-05-05T23:21:16.509Z,9.38
2019-05-05T23:23:46.591Z,2.95
2019-05-05T23:26:25.647Z,2.20
2019-05-05T23:28:54.066Z,4.10
2019-05-05T23:31:24.121Z,3.30
2019-05-05T23:33:54.713Z,2.62
2019-05-05T23:36:24.196Z,3.40
2019-05-05T23:38:54.800Z,4.08
2019-05-05T23:41:23.872Z,4.55
2019-05-05T23:43:54.489Z,2.92
2019-05-05T23:46:24.135Z,4.80
2019-05-05T23:48:53.690Z,3.20
2019-05-05T23:51:24.192Z,3.58
2019-05-05T23:53:54.866Z,3.65
2019-05-05T23:56:24.037Z,2.42
2019-05-05T23:58:54.884Z,4.28
